sensor_id;sensor_type;location;lat;lon;timestamp;temperature;humidity
35305;DHT22;26433;48.034;-1.764;2023-10-31T00:04:46;13.20;99.90
35305;DHT22;26433;48.034;-1.764;2023-10-31T00:19:59;13.00;99.90
35305;DHT22;26433;48.034;-1.764;2023-10-31T00:25:05;13.00;99.90
35305;DHT22;26433;48.034;-1.764;2023-10-31T00:35:15;13.00;99.90
35305;DHT22;26433;48.034;-1.764;2023-10-31T00:50:28;13.00;99.90
35305;DHT22;26433;48.034;-1.764;2023-10-31T01:05:41;13.10;99.90
35305;DHT22;26433;48.034;-1.764;2023-10-31T01:10:46;13.20;99.90
35305;DHT22;26433;48.034;-1.764;2023-10-31T01:20:55;13.30;99.90
35305;DHT22;26433;48.034;-1.764;2023-10-31T01:36:10;13.30;99.90
35305;DHT22;26433;48.034;-1.764;2023-10-31T01:51:24;13.30;99.90
35305;DHT22;26433;48.034;-1.764;2023-10-31T02:01:35;13.20;99.90
35305;DHT22;26433;48.034;-1.764;2023-10-31T02:06:40;13.10;99.90
35305;DHT22;26433;48.034;-1.764;2023-10-31T02:21:54;12.90;99.90
35305;DHT22;26433;48.034;-1.764;2023-10-31T02:37:08;12.90;99.90
35305;DHT22;26433;48.034;-1.764;2023-10-31T02:52:21;12.90;99.90
35305;DHT22;26433;48.034;-1.764;2023-10-31T03:07:34;12.70;99.90
35305;DHT22;26433;48.034;-1.764;2023-10-31T03:22:47;12.60;99.90
35305;DHT22;26433;48.034;-1.764;2023-10-31T03:38:00;12.40;99.90
35305;DHT22;26433;48.034;-1.764;2023-10-31T03:53:14;12.20;99.90
35305;DHT22;26433;48.034;-1.764;2023-10-31T04:08:28;12.20;99.90
35305;DHT22;26433;48.034;-1.764;2023-10-31T04:23:41;12.10;99.90
35305;DHT22;26433;48.034;-1.764;2023-10-31T04:38:55;12.00;99.90
35305;DHT22;26433;48.034;-1.764;2023-10-31T04:54:08;11.90;99.90
35305;DHT22;26433;48.034;-1.764;2023-10-31T05:09:21;12.00;99.90
35305;DHT22;26433;48.034;-1.764;2023-10-31T05:24:35;12.10;99.90
35305;DHT22;26433;48.034;-1.764;2023-10-31T05:39:49;12.00;99.90
35305;DHT22;26433;48.034;-1.764;2023-10-31T06:13:38;11.80;99.90
35305;DHT22;26433;48.034;-1.764;2023-10-31T06:28:51;11.80;99.90
35305;DHT22;26433;48.034;-1.764;2023-10-31T06:44:24;11.90;99.90
35305;DHT22;26433;48.034;-1.764;2023-10-31T06:59:38;11.90;99.90
35305;DHT22;26433;48.034;-1.764;2023-10-31T07:35:20;12.20;99.90
35305;DHT22;26433;48.034;-1.764;2023-10-31T07:50:52;12.50;99.90
35305;DHT22;26433;48.034;-1.764;2023-10-31T08:06:06;13.00;99.90
35305;DHT22;26433;48.034;-1.764;2023-10-31T08:16:17;13.20;99.90
35305;DHT22;26433;48.034;-1.764;2023-10-31T08:21:23;13.40;99.90
35305;DHT22;26433;48.034;-1.764;2023-10-31T08:36:35;13.80;99.90
35305;DHT22;26433;48.034;-1.764;2023-10-31T08:41:49;13.70;99.90
35305;DHT22;26433;48.034;-1.764;2023-10-31T08:51:58;14.00;99.90
35305;DHT22;26433;48.034;-1.764;2023-10-31T09:07:14;14.70;99.90
35305;DHT22;26433;48.034;-1.764;2023-10-31T09:12:17;14.70;99.90
35305;DHT22;26433;48.034;-1.764;2023-10-31T09:22:26;15.20;99.90
35305;DHT22;26433;48.034;-1.764;2023-10-31T09:37:40;15.50;99.90
35305;DHT22;26433;48.034;-1.764;2023-10-31T09:42:45;15.50;99.90
35305;DHT22;26433;48.034;-1.764;2023-10-31T09:52:54;16.00;99.90
35305;DHT22;26433;48.034;-1.764;2023-10-31T10:03:04;16.60;99.90
35305;DHT22;26433;48.034;-1.764;2023-10-31T10:08:09;16.80;99.90
35305;DHT22;26433;48.034;-1.764;2023-10-31T10:18:27;17.40;99.90
35305;DHT22;26433;48.034;-1.764;2023-10-31T10:23:32;17.30;99.90
35305;DHT22;26433;48.034;-1.764;2023-10-31T10:38:49;17.70;99.90
35305;DHT22;26433;48.034;-1.764;2023-10-31T10:43:56;17.60;99.90
35305;DHT22;26433;48.034;-1.764;2023-10-31T10:49:04;17.50;99.90
35305;DHT22;26433;48.034;-1.764;2023-10-31T10:54:14;17.50;99.90
35305;DHT22;26433;48.034;-1.764;2023-10-31T10:59:20;17.50;99.90
35305;DHT22;26433;48.034;-1.764;2023-10-31T11:04:24;17.50;99.90
35305;DHT22;26433;48.034;-1.764;2023-10-31T11:09:31;17.50;99.90
35305;DHT22;26433;48.034;-1.764;2023-10-31T11:24:44;17.50;99.90
35305;DHT22;26433;48.034;-1.764;2023-10-31T11:40:17;17.40;99.90
35305;DHT22;26433;48.034;-1.764;2023-10-31T11:45:29;17.30;99.90
35305;DHT22;26433;48.034;-1.764;2023-10-31T11:50:34;17.50;99.90
35305;DHT22;26433;48.034;-1.764;2023-10-31T11:55:40;17.60;99.90
35305;DHT22;26433;48.034;-1.764;2023-10-31T12:05:52;17.80;99.90
35305;DHT22;26433;48.034;-1.764;2023-10-31T12:11:05;17.90;99.90
35305;DHT22;26433;48.034;-1.764;2023-10-31T12:16:10;17.90;99.90
35305;DHT22;26433;48.034;-1.764;2023-10-31T12:26:22;17.90;99.90
35305;DHT22;26433;48.034;-1.764;2023-10-31T12:41:35;18.00;99.90
35305;DHT22;26433;48.034;-1.764;2023-10-31T12:46:40;18.00;99.90
35305;DHT22;26433;48.034;-1.764;2023-10-31T12:52:00;17.80;99.90
35305;DHT22;26433;48.034;-1.764;2023-10-31T12:57:06;17.70;99.90
35305;DHT22;26433;48.034;-1.764;2023-10-31T13:02:16;17.70;99.90
35305;DHT22;26433;48.034;-1.764;2023-10-31T13:07:26;17.60;99.90
35305;DHT22;26433;48.034;-1.764;2023-10-31T13:12:31;17.70;99.90
35305;DHT22;26433;48.034;-1.764;2023-10-31T13:22:41;17.80;99.90
35305;DHT22;26433;48.034;-1.764;2023-10-31T13:27:46;17.70;99.90
35305;DHT22;26433;48.034;-1.764;2023-10-31T13:37:59;17.70;99.90
35305;DHT22;26433;48.034;-1.764;2023-10-31T13:43:04;17.70;99.90
35305;DHT22;26433;48.034;-1.764;2023-10-31T13:58:26;17.40;99.90
35305;DHT22;26433;48.034;-1.764;2023-10-31T14:13:53;17.10;99.90
35305;DHT22;26433;48.034;-1.764;2023-10-31T14:24:05;17.20;99.90
35305;DHT22;26433;48.034;-1.764;2023-10-31T14:29:15;17.20;99.90
35305;DHT22;26433;48.034;-1.764;2023-10-31T14:44:28;17.10;99.90
35305;DHT22;26433;48.034;-1.764;2023-10-31T14:59:41;17.10;99.90
35305;DHT22;26433;48.034;-1.764;2023-10-31T15:14:57;17.00;99.90
35305;DHT22;26433;48.034;-1.764;2023-10-31T15:30:12;16.90;99.90
35305;DHT22;26433;48.034;-1.764;2023-10-31T15:45:25;17.00;99.90
35305;DHT22;26433;48.034;-1.764;2023-10-31T16:00:38;17.00;99.90
35305;DHT22;26433;48.034;-1.764;2023-10-31T16:05:43;16.90;99.90
35305;DHT22;26433;48.034;-1.764;2023-10-31T16:15:55;17.00;99.90
35305;DHT22;26433;48.034;-1.764;2023-10-31T16:20:59;16.90;99.90
35305;DHT22;26433;48.034;-1.764;2023-10-31T16:31:09;17.00;99.90
35305;DHT22;26433;48.034;-1.764;2023-10-31T16:46:27;16.90;99.90
35305;DHT22;26433;48.034;-1.764;2023-10-31T17:01:41;16.90;99.90
35305;DHT22;26433;48.034;-1.764;2023-10-31T17:06:45;16.80;99.90
35305;DHT22;26433;48.034;-1.764;2023-10-31T17:16:54;16.90;99.90
35305;DHT22;26433;48.034;-1.764;2023-10-31T17:21:58;16.80;99.90
35305;DHT22;26433;48.034;-1.764;2023-10-31T17:32:07;16.80;99.90
35305;DHT22;26433;48.034;-1.764;2023-10-31T17:37:24;16.90;99.90
35305;DHT22;26433;48.034;-1.764;2023-10-31T17:47:35;16.80;99.90
35305;DHT22;26433;48.034;-1.764;2023-10-31T17:52:39;16.80;99.90
35305;DHT22;26433;48.034;-1.764;2023-10-31T18:02:49;16.80;99.90
35305;DHT22;26433;48.034;-1.764;2023-10-31T18:18:06;16.70;99.90
35305;DHT22;26433;48.034;-1.764;2023-10-31T18:33:20;16.70;99.90
35305;DHT22;26433;48.034;-1.764;2023-10-31T18:48:33;16.70;99.90
35305;DHT22;26433;48.034;-1.764;2023-10-31T19:04:05;16.70;99.90
35305;DHT22;26433;48.034;-1.764;2023-10-31T19:14:14;16.60;99.90
35305;DHT22;26433;48.034;-1.764;2023-10-31T19:19:20;16.60;99.90
35305;DHT22;26433;48.034;-1.764;2023-10-31T19:24:23;16.60;99.90
35305;DHT22;26433;48.034;-1.764;2023-10-31T19:34:33;16.50;99.90
35305;DHT22;26433;48.034;-1.764;2023-10-31T19:44:41;16.40;99.90
35305;DHT22;26433;48.034;-1.764;2023-10-31T19:49:46;16.30;99.90
35305;DHT22;26433;48.034;-1.764;2023-10-31T20:05:00;16.30;99.90
35305;DHT22;26433;48.034;-1.764;2023-10-31T20:10:04;16.30;99.90
35305;DHT22;26433;48.034;-1.764;2023-10-31T20:20:14;16.20;99.90
35305;DHT22;26433;48.034;-1.764;2023-10-31T20:35:27;16.10;99.90
35305;DHT22;26433;48.034;-1.764;2023-10-31T20:50:42;16.20;99.90
35305;DHT22;26433;48.034;-1.764;2023-10-31T20:55:46;16.20;99.90
35305;DHT22;26433;48.034;-1.764;2023-10-31T21:05:55;16.10;99.90
35305;DHT22;26433;48.034;-1.764;2023-10-31T21:10:58;16.00;99.90
35305;DHT22;26433;48.034;-1.764;2023-10-31T21:21:08;16.10;99.90
35305;DHT22;26433;48.034;-1.764;2023-10-31T21:26:12;16.00;99.90
35305;DHT22;26433;48.034;-1.764;2023-10-31T21:36:21;16.10;99.90
35305;DHT22;26433;48.034;-1.764;2023-10-31T21:41:25;16.00;99.90
35305;DHT22;26433;48.034;-1.764;2023-10-31T21:46:28;16.00;99.90
35305;DHT22;26433;48.034;-1.764;2023-10-31T21:51:34;16.00;99.90
35305;DHT22;26433;48.034;-1.764;2023-10-31T22:06:46;16.00;99.90
35305;DHT22;26433;48.034;-1.764;2023-10-31T22:11:52;16.00;99.90
35305;DHT22;26433;48.034;-1.764;2023-10-31T22:22:00;15.90;99.90
35305;DHT22;26433;48.034;-1.764;2023-10-31T22:37:16;15.80;99.90
35305;DHT22;26433;48.034;-1.764;2023-10-31T22:52:29;15.90;99.90
35305;DHT22;26433;48.034;-1.764;2023-10-31T23:07:43;15.90;99.90
35305;DHT22;26433;48.034;-1.764;2023-10-31T23:22:57;15.90;99.90
35305;DHT22;26433;48.034;-1.764;2023-10-31T23:38:12;16.00;99.90
35305;DHT22;26433;48.034;-1.764;2023-10-31T23:53:24;15.90;99.90
